Latest Coastal Weather Observations for Mornington Island Airport

IDQ60701

Issued at 2:05 pm EST Monday 28 July 2014 (issued every 10 minutes, with the page automatically refreshed every 10 minutes)

About coastal observations | Map of coastal stations | Coastal observations for QLD | Marine services | Other Formats
Station Details ID: 029182 Name: MORNINGTON ISLAND AIRPORT Lat: -16.66 Lon: 139.17 Height: 9.0 m
Data from the previous 72 hours. | See also: Recent months for locations in Queensland
Date/Time
EST
Temp

°C
Wind Pressure Rain
since 9am
mm
Weather Cloud Vis
km
Sea
Height
m
Swell
Dir
 
Speed
knots
Gust
knots
hPa Trend Height
m
Period
s
Dir
28/02:00pm 25.5 W 8 10 1017.0 - 0.0 - - - - - - -
28/01:30pm 25.3 W 8 12 1017.6 - 0.0 - - - - - - -
28/01:00pm 26.1 SW 6 11 1017.8 - 0.0 - - - - - - -
28/12:30pm 27.3 SE 7 11 1018.0 - 0.0 - - - - - - -
28/12:00pm 28.4 E 10 15 1018.1 - 0.0 - - - - - - -
28/11:30am 28.1 E 11 17 1018.5 - 0.0 - - - - - - -
28/11:00am 27.7 NE 10 15 1018.8 - 0.0 - - - - - - -
28/10:30am 27.1 E 13 16 1018.9 - 0.0 - - - - - - -
28/10:00am 26.8 E 11 14 1019.2 - 0.0 - - - - - - -
28/09:30am 26.1 E 10 17 1019.1 - 0.0 - - - - - - -
28/09:00am 25.1 E 10 12 1018.8 - 0.0 - - - - - - -
28/08:30am 22.9 ESE 5 7 1018.7 - 0.0 - - - - - - -
28/08:00am 21.6 ESE 7 8 1018.3 - 0.0 - - - - - - -
28/07:30am 20.9 SE 5 7 1018.1 - 0.0 - - - - - - -
28/07:00am 21.0 SE 7 9 1017.5 - 0.0 - - - - - - -
28/06:30am 21.2 SE 6 8 1017.4 - 0.0 - - - - - - -
28/06:00am 21.7 SE 7 10 1017.0 - 0.0 - - - - - - -
28/05:30am 21.7 SE 6 9 1016.8 - 0.0 - - - - - - -
28/05:00am 21.8 SSE 6 9 1016.6 - 0.0 - - - - - - -
28/04:30am 21.5 SSE 6 10 1016.5 - 0.0 - - - - - - -
28/04:00am 21.3 SSE 5 7 1016.2 - 0.0 - - - - - - -
28/03:30am 21.4 SSE 5 7 1016.4 - 0.0 - - - - - - -
28/03:00am 21.6 SSE 6 8 1016.5 - 0.0 - - - - - - -
28/02:30am 21.7 SSE 5 8 1016.8 - 0.0 - - - - - - -
28/02:00am 21.9 S 5 7 1016.7 - 0.0 - - - - - - -
28/01:30am 21.3 S 4 6 1017.1 - 0.0 - - - - - - -
28/01:00am 21.4 SSW 5 7 1017.1 - 0.0 - - - - - - -
28/12:30am 21.4 S 3 6 1017.4 - 0.0 - - - - - - -
28/12:00am 21.1 SSW 3 5 1017.4 - 0.0 - - - - - - -
 
Date/Time
EST
Temp

°C
Wind Pressure Rain
since 9am
mm
Weather Cloud Vis
km
Sea
Height
m
Swell
Dir
 
Speed
knots
Gust
knots
hPa Trend Height
m
Period
s
Dir
27/11:30pm 20.9 SSW 3 4 1017.6 - 0.0 - - - - - - -
27/11:00pm 20.7 SSW 3 5 1017.8 - 0.0 - - - - - - -
27/10:30pm 20.7 SSW 4 6 1017.9 - 0.0 - - - - - - -
27/10:00pm 20.6 SW 3 5 1017.9 - 0.0 - - - - - - -
27/09:30pm 21.0 SW 4 5 1018.1 - 0.0 - - - - - - -
27/09:00pm 21.0 SW 4 5 1017.9 - 0.0 - - - - - - -
27/08:30pm 21.4 SSW 4 5 1017.9 - 0.0 - - - - - - -
27/08:00pm 21.9 SSE 3 4 1017.5 - 0.0 - - - - - - -
27/07:30pm 22.3 S 3 4 1017.3 - 0.0 - - - - - - -
27/07:00pm 23.4 SE 4 5 1016.8 - 0.0 - - - - - - -
27/06:30pm 25.0 ESE 5 6 1016.8 - 0.0 - - - - - - -
27/06:00pm 26.4 ESE 6 10 1016.7 - 0.0 - - - - - - -
27/05:30pm 27.0 ESE 7 11 1016.7 - 0.0 - - - - - - -
27/05:00pm 27.0 ESE 9 11 1016.8 - 0.0 - - - - - - -
27/04:30pm 26.1 SE 7 10 1016.9 - 0.0 - - - - - - -
27/04:00pm 25.8 SE 9 13 1017.0 - 0.0 - - - - - - -
27/03:30pm 25.9 SE 9 14 1017.2 - 0.0 - - - - - - -
27/03:00pm 25.6 SE 9 17 1017.3 - 0.0 - - - - - - -
27/02:30pm 26.1 SE 9 14 1017.8 - 0.0 - - - - - - -
27/02:00pm 26.0 SE 11 15 1018.0 - 0.0 - - - - - - -
27/01:30pm 26.8 ESE 11 17 1018.7 - 0.0 - - - - - - -
27/01:00pm 26.1 ESE 12 17 1019.1 - 0.0 - - - - - - -
27/12:30pm 25.8 SE 13 18 1019.6 - 0.0 - - - - - - -
27/12:00pm 25.9 SE 11 17 1020.0 - 0.0 - - - - - - -
27/11:30am 25.4 SE 11 17 1020.2 - 0.0 - - - - - - -
27/11:00am 24.9 SSE 9 14 1020.3 - 0.0 - - - - - - -
27/10:30am 24.3 SSE 8 17 1020.6 - 0.0 - - - - - - -
27/10:00am 24.7 SE 10 15 1020.4 - 0.0 - - - - - - -
27/09:30am 24.1 SE 11 16 1020.3 - 0.0 - - - - - - -
27/09:00am 23.8 SE 10 14 1020.0 - 0.0 - - - - - - -
27/08:30am 23.4 SE 10 15 1019.7 - 0.0 - - - - - - -
27/08:00am 22.6 SE 10 15 1019.4 - 0.0 - - - - - - -
27/07:30am 22.3 SE 11 16 1018.8 - 0.0 - - - - - - -
27/07:00am 22.1 SE 11 16 1018.4 - 0.0 - - - - - - -
27/06:30am 22.0 SE 9 14 1018.2 - 0.0 - - - - - - -
27/06:00am 22.2 SSE 10 16 1017.8 - 0.0 - - - - - - -
27/05:30am 22.2 SSE 9 15 1017.6 - 0.0 - - - - - - -
27/05:00am 22.2 SSE 8 13 1017.3 - 0.0 - - - - - - -
27/04:30am 22.3 SSE 9 14 1017.1 - 0.0 - - - - - - -
27/04:00am 22.6 SSE 8 13 1017.2 - 0.0 - - - - - - -
27/03:30am 21.4 SSE 5 10 1017.3 - 0.0 - - - - - - -
27/03:00am 20.9 S 4 7 1017.4 - 0.0 - - - - - - -
27/02:30am 20.7 S 3 5 1017.8 - 0.0 - - - - - - -
27/02:00am 21.0 SW 1 4 1018.1 - 0.0 - - - - - - -
27/01:30am 21.5 WSW 4 5 1018.5 - 0.0 - - - - - - -
27/01:00am 21.4 WSW 3 4 1018.6 - 0.0 - - - - - - -
27/12:30am 20.9 SW 4 5 1018.6 - 0.0 - - - - - - -
27/12:00am 20.8 SW 4 5 1018.8 - 0.0 - - - - - - -
 
Date/Time
EST
Temp

°C
Wind Pressure Rain
since 9am
mm
Weather Cloud Vis
km
Sea
Height
m
Swell
Dir
 
Speed
knots
Gust
knots
hPa Trend Height
m
Period
s
Dir
26/11:30pm 20.7 SW 4 5 1018.9 - 0.0 - - - - - - -
26/11:00pm 20.8 SW 5 6 1019.0 - 0.0 - - - - - - -
26/10:30pm 20.7 SW 3 5 1019.3 - 0.0 - - - - - - -
26/10:00pm 21.1 WSW 3 4 1019.4 - 0.0 - - - - - - -
26/09:30pm 21.8 WSW 4 5 1019.5 - 0.0 - - - - - - -
26/09:00pm 22.0 W 4 5 1019.4 - 0.0 - - - - - - -
26/08:30pm 22.2 W 4 5 1019.3 - 0.0 - - - - - - -
26/08:00pm 22.5 W 4 5 1019.2 - 0.0 - - - - - - -
26/07:30pm 23.0 NW 4 5 1018.9 - 0.0 - - - - - - -
26/07:00pm 23.1 NW 5 6 1018.6 - 0.0 - - - - - - -
26/06:30pm 23.6 NW 6 7 1018.3 - 0.0 - - - - - - -
26/06:00pm 24.8 NW 7 8 1018.0 - 0.0 - - - - - - -
26/05:30pm 27.0 ENE 6 8 1018.0 - 0.0 - - - - - - -
26/05:00pm 27.2 ESE 7 10 1017.8 - 0.0 - - - - - - -
26/04:30pm 27.7 ESE 8 11 1017.8 - 0.0 - - - - - - -
26/04:00pm 27.6 SE 8 11 1017.5 - 0.0 - - - - - - -
26/03:30pm 27.5 SE 9 13 1017.4 - 0.0 - - - - - - -
26/03:00pm 27.6 SE 9 13 1017.4 - 0.0 - - - - - - -
26/02:30pm 27.5 SE 8 13 1017.8 - 0.0 - - - - - - -
26/02:00pm 27.8 SE 7 11 1018.0 - 0.0 - - - - - - -
26/01:30pm 27.9 SE 10 15 1018.6 - 0.0 - - - - - - -
26/01:00pm 26.9 SSE 8 12 1019.1 - 0.0 - - - - - - -
26/12:30pm 26.7 SSE 7 11 1019.6 - 0.0 - - - - - - -
26/12:00pm 26.9 SE 7 11 1020.2 - 0.0 - - - - - - -
26/11:30am 25.9 SE 8 11 1020.6 - 0.0 - - - - - - -
26/11:00am 25.2 SSE 7 12 1020.9 - 0.0 - - - - - - -
26/10:30am 24.4 SSE 8 13 1021.1 - 0.0 - - - - - - -
26/10:00am 24.3 SSE 7 11 1021.1 - 0.0 - - - - - - -
26/09:30am 23.9 SE 7 11 1021.0 - 0.0 - - - - - - -
26/09:00am 23.6 SE 6 9 1020.7 - 0.0 - - - - - - -
26/08:30am 22.6 SE 7 10 1020.4 - 0.0 - - - - - - -
26/08:00am 21.6 SE 4 6 1020.2 - 0.0 - - - - - - -
26/07:30am 20.7 SE 5 8 1020.0 - 0.0 - - - - - - -
26/07:00am 20.1 SE 5 7 1019.7 - 0.0 - - - - - - -
26/06:30am 20.1 SE 4 4 1019.2 - 0.0 - - - - - - -
26/06:00am 20.7 SSE 3 4 1019.0 - 0.0 - - - - - - -
26/05:30am 20.7 SSE 3 4 1018.9 - 0.0 - - - - - - -
26/05:00am 20.9 CALM 0 0 1018.9 - 0.0 - - - - - - -
26/04:30am 21.0 CALM 0 3 1018.7 - 0.0 - - - - - - -
26/04:00am 20.8 S 3 5 1018.5 - 0.0 - - - - - - -
26/03:30am 20.3 SSE 4 5 1018.3 - 0.0 - - - - - - -
26/03:00am 20.3 ESE 3 4 1018.1 - 0.0 - - - - - - -
26/02:30am 20.7 ESE 4 4 1018.4 - 0.0 - - - - - - -
26/02:00am 21.0 SE 3 4 1018.6 - 0.0 - - - - - - -
26/01:30am 21.2 CALM 0 0 1018.7 - 0.0 - - - - - - -
26/01:00am 21.5 CALM 0 0 1018.9 - 0.0 - - - - - - -
26/12:30am 21.4 CALM 0 0 1019.1 - 0.0 - - - - - - -
26/12:00am 21.5 E 3 4 1019.2 - 0.0 - - - - - - -
 
Date/Time
EST
Temp

°C
Wind Pressure Rain
since 9am
mm
Weather Cloud Vis
km
Sea
Height
m
Swell
Dir
 
Speed
knots
Gust
knots
hPa Trend Height
m
Period
s
Dir
25/11:30pm 21.5 CALM 0 0 1019.4 - 0.0 - - - - - - -
25/11:00pm 21.8 E 4 5 1019.3 - 0.0 - - - - - - -
25/10:30pm 22.0 E 3 4 1019.6 - 0.0 - - - - - - -
25/10:00pm 22.1 E 3 4 1019.6 - 0.0 - - - - - - -
25/09:30pm 22.1 E 3 4 1019.6 - 0.0 - - - - - - -
25/09:00pm 22.4 E 4 5 1019.4 - 0.0 - - - - - - -
25/08:30pm 22.6 ESE 4 5 1019.2 - 0.0 - - - - - - -
25/08:00pm 22.9 ESE 3 5 1018.9 - 0.0 - - - - - - -
25/07:30pm 23.0 ESE 5 6 1018.5 - 0.0 - - - - - - -
25/07:00pm 23.3 CALM 0 0 1017.8 - 0.0 - - - - - - -
25/06:30pm 23.6 CALM 0 0 1017.8 - 0.0 - - - - - - -
25/06:00pm 23.6 NW 5 6 1017.3 - 0.0 - - - - - - -
25/05:30pm 24.2 SW 4 5 1017.0 - 0.0 - - - - - - -
25/05:00pm 24.2 WSW 5 7 1016.8 - 0.0 - - - - - - -
25/04:30pm 24.9 W 5 7 1016.7 - 0.0 - - - - - - -
25/04:00pm 24.8 W 6 8 1016.5 - 0.0 - - - - - - -
25/03:30pm 25.5 W 7 8 1016.5 - 0.0 - - - - - - -
25/03:00pm 26.2 W 7 9 1016.6 - 0.0 - - - - - - -
25/02:30pm 25.7 W 6 8 1016.8 - 0.0 - - - - - - -

Other Formats:

Comma delimited format used in spreadsheet applications
http://www.bom.gov.au/fwo/IDQ60701/IDQ60701.94254.axf

JavaScript Object Notation format (JSON) in row-major order
http://www.bom.gov.au/fwo/IDQ60701/IDQ60701.94254.json